Ammaroo Airport


Codes: YAMM/AMX
Name: Ammaroo Airport
City:
Country: Australia
Elevation: 0 ft.

Photos at Ammaroo Airport


   Photos courtesy of SpottingLog. You can add your own sightings and photos by signing up for a free trial today.



No photos found.

Weather at Ammaroo Airport


Time (UTC)DescriptionTempratureWindCloud coverageVisibilityPressureHumidity
25-Jun-2024 15:00Clear Sky14°C7 mph, E0%10000m1018hPa34%
25-Jun-2024 18:00Clear Sky13°C7 mph, E0%10000m1018hPa37%
25-Jun-2024 21:00Clear Sky11°C9 mph, E0%10000m1019hPa40%
26-Jun-2024 00:00Clear Sky16°C11 mph, E0%10000m1021hPa32%
26-Jun-2024 03:00Clear Sky21°C11 mph, E0%10000m1018hPa23%
26-Jun-2024 06:00Clear Sky22°C9 mph, E0%10000m1015hPa19%
26-Jun-2024 09:00Clear Sky18°C9 mph, SE0%10000m1017hPa26%
26-Jun-2024 12:00Clear Sky16°C9 mph, E0%10000m1020hPa29%
26-Jun-2024 15:00Clear Sky14°C11 mph, SE0%10000m1020hPa33%
26-Jun-2024 18:00Clear Sky12°C11 mph, SE2%10000m1020hPa38%
26-Jun-2024 21:00Clear Sky11°C9 mph, SE7%10000m1021hPa38%
27-Jun-2024 00:00Clear Sky16°C11 mph, SE5%10000m1022hPa29%
27-Jun-2024 03:00Clear Sky22°C11 mph, E0%10000m1019hPa21%
27-Jun-2024 06:00Clear Sky23°C9 mph, E0%10000m1016hPa20%
27-Jun-2024 09:00Clear Sky19°C11 mph, E3%10000m1017hPa27%
27-Jun-2024 12:00Clear Sky16°C11 mph, SE10%10000m1019hPa30%
27-Jun-2024 15:00Clear Sky14°C11 mph, SE0%10000m1019hPa33%
27-Jun-2024 18:00Clear Sky13°C9 mph, SE0%10000m1019hPa35%
27-Jun-2024 21:00Clear Sky12°C9 mph, SE0%10000m1020hPa36%
28-Jun-2024 00:00Clear Sky17°C9 mph, E0%10000m1020hPa29%
28-Jun-2024 03:00Clear Sky23°C9 mph, NE0%10000m1018hPa29%
28-Jun-2024 06:00Clear Sky25°C4 mph, NE0%10000m1015hPa32%
28-Jun-2024 09:00Clear Sky22°C7 mph, E0%10000m1016hPa44%
28-Jun-2024 12:00Clear Sky20°C9 mph, E0%10000m1018hPa50%
28-Jun-2024 15:00Clear Sky18°C9 mph, E0%10000m1017hPa53%
28-Jun-2024 18:00Clear Sky18°C7 mph, E0%10000m1016hPa57%
28-Jun-2024 21:00Clear Sky17°C7 mph, NE1%10000m1017hPa61%
29-Jun-2024 00:00Scattered Clouds22°C9 mph, NE33%10000m1017hPa51%
29-Jun-2024 03:00Broken Clouds28°C9 mph, N64%10000m1015hPa38%
29-Jun-2024 06:00Scattered Clouds30°C16 mph, NW40%10000m1012hPa31%
29-Jun-2024 09:00Broken Clouds27°C9 mph, N81%10000m1013hPa38%
29-Jun-2024 12:00Broken Clouds23°C2 mph, NE74%10000m1015hPa49%
29-Jun-2024 15:00Overcast Clouds24°C4 mph, SE95%10000m1015hPa46%
29-Jun-2024 18:00Scattered Clouds19°C16 mph, SE50%10000m1016hPa68%
29-Jun-2024 21:00Light Rain17°C11 mph, SE47%10000m1017hPa71%
30-Jun-2024 00:00Few Clouds19°C18 mph, SE23%10000m1019hPa61%
30-Jun-2024 03:00Light Rain23°C16 mph, SE28%10000m1018hPa51%
30-Jun-2024 06:00Light Rain23°C16 mph, SE35%10000m1016hPa53%
30-Jun-2024 09:00Broken Clouds18°C20 mph, SE74%10000m1018hPa66%
30-Jun-2024 12:00Light Rain17°C16 mph, SE61%10000m1021hPa72%